Dayton, Nevada
Current Conditions -  °F | °C
As of 4:15 PM on Thursday 27 Nov 2014 (Local Time) from KCXP Reporting Station
Clear Clear  
Wind Chill: 19°   Ceiling: Unl
Heat Index: 19°   Visibility: 10mi
Dew Point: -9°   Wind: 8mph
Humidity: 14%   Direction: 230°SW
Pressure: 30.16"   Gusts: NA
Location:  39.24°N, 119.6°W
Report Text: KCXP 280015Z AUTO 23007KT 10SM CLR 19/M09 A3016 RMK AO2
Loading
Personal Weather Stations






























Interactive Weather Map New forecast layout! Learn more

10-Day Weather Forecast

Advertisements
Track Severe Weather on mobile